createdAt,value
2018-12-16T00:00:07.501Z,87.40
2018-12-16T00:01:07.522Z,81.30
2018-12-16T00:02:07.480Z,85.20
2018-12-16T00:03:07.466Z,84.40
2018-12-16T00:04:07.455Z,83.90
2018-12-16T00:05:07.448Z,79.60
2018-12-16T00:06:07.456Z,75.90
2018-12-16T00:07:07.419Z,76.00
2018-12-16T00:08:07.412Z,74.60
2018-12-16T00:09:07.399Z,81.20
2018-12-16T00:10:07.388Z,79.30
2018-12-16T00:11:07.386Z,74.20
2018-12-16T00:12:07.367Z,77.20
2018-12-16T00:13:07.357Z,78.10
2018-12-16T00:14:07.394Z,75.50
2018-12-16T00:15:07.336Z,79.00
2018-12-16T00:16:07.332Z,78.80
2018-12-16T00:17:07.321Z,77.90
2018-12-16T00:18:07.306Z,73.10
2018-12-16T00:19:07.293Z,75.70
2018-12-16T00:20:07.280Z,78.30
2018-12-16T00:21:07.315Z,73.90
2018-12-16T00:22:07.259Z,77.30
2018-12-16T00:23:07.262Z,73.20
2018-12-16T00:24:07.238Z,72.00
2018-12-16T00:25:07.232Z,73.80
2018-12-16T00:26:07.221Z,76.10
2018-12-16T00:27:07.216Z,78.70
2018-12-16T00:28:07.197Z,72.50
2018-12-16T00:29:07.196Z,80.70
2018-12-16T00:30:07.175Z,76.30
2018-12-16T00:31:07.166Z,74.20
2018-12-16T00:32:07.162Z,72.40
2018-12-16T00:33:07.143Z,71.70
2018-12-16T00:34:07.133Z,73.40
2018-12-16T00:35:07.123Z,74.50
2018-12-16T00:36:07.111Z,77.90
2018-12-16T00:37:07.110Z,72.40
2018-12-16T00:38:07.090Z,73.30
2018-12-16T00:39:07.087Z,71.60
2018-12-16T00:40:07.071Z,70.70
2018-12-16T00:41:07.057Z,73.80
2018-12-16T00:42:07.056Z,73.60
2018-12-16T00:43:07.035Z,76.60
2018-12-16T00:44:07.024Z,76.30
2018-12-16T00:45:07.022Z,74.50
2018-12-16T00:46:07.013Z,74.60
2018-12-16T00:47:07.017Z,73.20
2018-12-16T00:48:06.993Z,75.40
2018-12-16T00:49:06.973Z,71.60
2018-12-16T00:50:07.002Z,71.00
2018-12-16T00:51:06.952Z,71.70
2018-12-16T00:52:06.950Z,74.10
2018-12-16T00:53:06.952Z,73.10
2018-12-16T00:54:06.931Z,71.40
2018-12-16T00:55:06.909Z,69.90
2018-12-16T00:56:06.929Z,70.20
2018-12-16T00:57:06.898Z,67.80
2018-12-16T00:58:06.889Z,71.70
2018-12-16T00:59:06.868Z,66.50
2018-12-16T01:00:06.859Z,67.00
2018-12-16T01:01:06.848Z,62.40
2018-12-16T01:02:06.852Z,64.90
2018-12-16T01:03:06.825Z,62.80
2018-12-16T01:04:06.819Z,62.10
2018-12-16T01:05:06.803Z,63.50
2018-12-16T01:06:06.792Z,61.00
2018-12-16T01:07:06.897Z,61.10
2018-12-16T01:08:06.771Z,62.50
2018-12-16T01:09:06.759Z,64.10
2018-12-16T01:10:06.755Z,60.50
2018-12-16T01:11:06.739Z,61.10
2018-12-16T01:12:06.738Z,61.40
2018-12-16T01:13:06.741Z,60.10
2018-12-16T01:14:06.705Z,58.40
2018-12-16T01:15:06.697Z,56.80
2018-12-16T01:16:06.692Z,57.50
2018-12-16T01:17:06.683Z,59.50
2018-12-16T01:18:06.665Z,58.10
2018-12-16T01:19:06.653Z,56.00
2018-12-16T01:20:06.644Z,58.00
2018-12-16T01:21:06.637Z,58.30
2018-12-16T01:22:06.637Z,54.50
2018-12-16T01:23:06.610Z,55.50
2018-12-16T01:24:06.608Z,56.90
2018-12-16T01:25:06.590Z,57.00
2018-12-16T01:26:06.644Z,54.50
2018-12-16T01:27:06.600Z,56.10
2018-12-16T01:28:06.581Z,56.50
2018-12-16T01:29:06.546Z,56.00
2018-12-16T01:30:06.538Z,55.60
2018-12-16T01:31:06.530Z,53.20
2018-12-16T01:32:06.524Z,55.40
2018-12-16T01:33:06.506Z,53.80
2018-12-16T01:34:06.494Z,49.00
2018-12-16T01:35:06.486Z,54.70
2018-12-16T01:36:06.476Z,53.20
2018-12-16T01:37:06.472Z,48.70
2018-12-16T01:38:06.453Z,48.80
2018-12-16T01:39:06.444Z,48.80
2018-12-16T01:40:06.430Z,46.60
2018-12-16T01:41:06.420Z,45.90
2018-12-16T01:42:06.419Z,47.60
2018-12-16T01:43:06.400Z,46.60
2018-12-16T01:44:06.388Z,46.00
2018-12-16T01:45:06.380Z,45.40
2018-12-16T01:46:06.369Z,44.30
2018-12-16T01:47:06.364Z,49.30
2018-12-16T01:48:06.346Z,45.70
2018-12-16T01:49:06.335Z,45.40
2018-12-16T01:50:06.327Z,45.40
2018-12-16T01:51:06.322Z,45.70
2018-12-16T01:52:06.302Z,46.50
2018-12-16T01:53:06.304Z,44.10
2018-12-16T01:54:06.282Z,43.30
2018-12-16T01:55:06.274Z,42.80
2018-12-16T01:56:06.265Z,45.40
2018-12-16T01:57:06.254Z,45.10
2018-12-16T01:58:06.249Z,45.20
2018-12-16T01:59:06.230Z,45.20
2018-12-16T02:00:06.220Z,42.10
2018-12-16T02:01:06.209Z,43.10
2018-12-16T02:02:06.203Z,43.30
2018-12-16T02:03:06.212Z,40.60
2018-12-16T02:04:06.179Z,40.60
2018-12-16T02:05:06.165Z,40.80
2018-12-16T02:06:06.158Z,41.60
2018-12-16T02:07:06.147Z,42.30
2018-12-16T02:08:06.149Z,41.70
2018-12-16T02:09:06.121Z,41.70
2018-12-16T02:10:06.112Z,41.80
2018-12-16T02:11:06.107Z,41.70
2018-12-16T02:12:06.093Z,39.90
2018-12-16T02:13:06.093Z,42.80
2018-12-16T02:14:06.071Z,41.50
2018-12-16T02:15:06.059Z,38.60
2018-12-16T02:16:06.049Z,36.90
2018-12-16T02:17:06.043Z,37.70
2018-12-16T02:18:06.036Z,38.60
2018-12-16T02:19:06.016Z,38.60
2018-12-16T02:20:06.006Z,38.00
2018-12-16T02:21:05.995Z,36.40
2018-12-16T02:22:05.985Z,38.30
2018-12-16T02:23:05.988Z,37.50
2018-12-16T02:24:05.966Z,38.00
2018-12-16T02:25:05.955Z,36.80
2018-12-16T02:26:05.944Z,34.30
2018-12-16T02:27:05.931Z,33.90
2018-12-16T02:28:05.929Z,36.60
2018-12-16T02:29:05.913Z,37.60
2018-12-16T02:30:05.899Z,35.00
2018-12-16T02:31:05.895Z,34.30
2018-12-16T02:32:05.882Z,33.00
2018-12-16T02:33:05.880Z,34.00
2018-12-16T02:34:05.857Z,35.20
2018-12-16T02:35:05.845Z,34.20
2018-12-16T02:36:05.835Z,30.30
2018-12-16T02:37:05.832Z,31.20
2018-12-16T02:38:05.829Z,27.90
2018-12-16T02:39:05.805Z,28.60
2018-12-16T02:40:05.791Z,28.60
2018-12-16T02:41:05.787Z,27.40
2018-12-16T02:42:05.775Z,31.30
2018-12-16T02:43:05.778Z,28.00
2018-12-16T02:44:05.755Z,27.10
2018-12-16T02:45:05.741Z,23.00
2018-12-16T02:46:05.730Z,22.50
2018-12-16T02:47:05.717Z,21.10
2018-12-16T02:48:05.721Z,22.40
2018-12-16T02:49:05.706Z,20.10
2018-12-16T02:50:05.690Z,19.90
2018-12-16T02:51:05.678Z,21.10
2018-12-16T02:52:05.667Z,21.20
2018-12-16T02:53:05.676Z,20.30
2018-12-16T02:54:05.645Z,21.30
2018-12-16T02:55:05.637Z,21.90
2018-12-16T02:56:05.623Z,22.00
2018-12-16T02:57:05.613Z,21.30
2018-12-16T02:58:05.614Z,21.00
2018-12-16T02:59:05.592Z,22.10
2018-12-16T03:00:05.583Z,22.60
2018-12-16T03:01:05.572Z,21.50
2018-12-16T03:02:05.559Z,22.40
2018-12-16T03:03:05.560Z,23.30
2018-12-16T03:04:05.538Z,23.90
2018-12-16T03:05:05.532Z,26.90
2018-12-16T03:06:05.521Z,25.50
2018-12-16T03:07:05.513Z,26.10
2018-12-16T03:08:05.505Z,29.50
2018-12-16T03:09:05.485Z,29.30
2018-12-16T03:10:05.476Z,30.60
2018-12-16T03:11:05.467Z,31.00
2018-12-16T03:12:05.455Z,30.20
2018-12-16T03:13:05.458Z,32.50
2018-12-16T03:14:05.430Z,31.20
2018-12-16T03:15:05.425Z,32.50
2018-12-16T03:16:05.412Z,31.40
2018-12-16T03:17:05.399Z,31.10
2018-12-16T03:18:05.428Z,32.40
2018-12-16T03:19:05.389Z,31.60
2018-12-16T03:20:05.370Z,34.00
2018-12-16T03:21:05.358Z,34.70
2018-12-16T03:22:05.350Z,39.80
2018-12-16T03:23:11.968Z,36.40
2018-12-16T03:24:06.344Z,40.60
2018-12-16T03:25:05.314Z,40.80
2018-12-16T03:26:05.304Z,43.30
2018-12-16T03:27:05.302Z,41.70
2018-12-16T03:28:05.283Z,44.40
2018-12-16T03:29:05.281Z,45.30
2018-12-16T03:30:05.264Z,45.40
2018-12-16T03:31:05.272Z,44.00
2018-12-16T03:32:05.254Z,45.20
2018-12-16T03:33:05.230Z,46.70
2018-12-16T03:34:05.230Z,47.50
2018-12-16T03:35:05.209Z,46.00
2018-12-16T03:36:05.196Z,45.90
2018-12-16T03:37:05.187Z,50.70
2018-12-16T03:38:05.180Z,48.50
2018-12-16T03:39:05.174Z,48.90
2018-12-16T03:40:05.156Z,50.30
2018-12-16T03:41:05.150Z,49.30
2018-12-16T03:42:05.136Z,50.90
2018-12-16T03:43:05.125Z,52.40
2018-12-16T03:44:05.121Z,48.90
2018-12-16T03:45:05.102Z,48.40
2018-12-16T03:46:05.093Z,51.80
2018-12-16T03:47:05.087Z,50.20
2018-12-16T03:48:05.073Z,50.90
2018-12-16T03:49:05.068Z,52.10
2018-12-16T03:50:05.046Z,50.40
2018-12-16T03:51:05.041Z,53.10
2018-12-16T03:52:05.025Z,52.70
2018-12-16T03:53:05.019Z,51.70
2018-12-16T03:54:05.021Z,52.20
2018-12-16T03:55:04.992Z,52.50
2018-12-16T03:56:04.983Z,52.70
2018-12-16T03:57:04.974Z,50.80
2018-12-16T03:58:04.961Z,52.60
2018-12-16T03:59:04.963Z,51.70
2018-12-16T04:00:04.946Z,55.30
2018-12-16T04:01:04.933Z,55.60
2018-12-16T04:02:04.926Z,52.90
2018-12-16T04:03:04.909Z,54.30
2018-12-16T04:04:04.911Z,53.90
2018-12-16T04:05:04.912Z,53.40
2018-12-16T04:06:04.878Z,53.90
2018-12-16T04:07:04.891Z,55.40
2018-12-16T04:08:04.855Z,53.90
2018-12-16T04:09:04.857Z,54.80
2018-12-16T04:10:04.844Z,55.30
2018-12-16T04:11:04.825Z,55.10
2018-12-16T04:12:04.813Z,56.60
2018-12-16T04:13:04.810Z,54.40
2018-12-16T04:14:04.803Z,54.30
2018-12-16T04:15:04.784Z,56.70
2018-12-16T04:16:04.774Z,55.70
2018-12-16T04:17:04.769Z,55.90
2018-12-16T04:18:04.748Z,58.60
2018-12-16T04:19:04.749Z,56.70
2018-12-16T04:20:04.730Z,59.10
2018-12-16T04:21:04.718Z,57.90
2018-12-16T04:22:04.707Z,58.60
2018-12-16T04:23:04.705Z,56.40
2018-12-16T04:24:04.693Z,56.50
2018-12-16T04:25:04.675Z,57.00
2018-12-16T04:26:04.662Z,58.80
2018-12-16T04:27:04.653Z,58.40
2018-12-16T04:28:04.641Z,57.10
2018-12-16T04:29:04.650Z,57.00
2018-12-16T04:30:04.621Z,56.00
2018-12-16T04:31:04.609Z,56.20
2018-12-16T04:32:04.599Z,56.70
2018-12-16T04:33:04.590Z,56.40
2018-12-16T04:34:04.588Z,58.10
2018-12-16T04:35:04.571Z,56.20
2018-12-16T04:36:04.559Z,57.50
2018-12-16T04:37:04.545Z,58.90
2018-12-16T04:38:04.533Z,61.00
2018-12-16T04:39:04.537Z,57.40
2018-12-16T04:40:04.516Z,61.40
2018-12-16T04:41:04.501Z,56.40
2018-12-16T04:42:04.491Z,57.80
2018-12-16T04:43:04.480Z,56.80
2018-12-16T04:44:04.478Z,60.10
2018-12-16T04:45:04.459Z,57.40
2018-12-16T04:46:04.450Z,57.60
2018-12-16T04:47:04.436Z,56.50
2018-12-16T04:48:04.426Z,57.60
2018-12-16T04:49:04.444Z,57.10
2018-12-16T04:50:04.406Z,57.20
2018-12-16T04:51:04.394Z,56.30
2018-12-16T04:52:04.388Z,58.70
2018-12-16T04:53:04.370Z,58.70
2018-12-16T04:54:04.364Z,59.80
2018-12-16T04:55:04.361Z,58.40
2018-12-16T04:56:04.341Z,59.60
2018-12-16T04:57:04.333Z,56.60
2018-12-16T04:58:04.321Z,60.90
2018-12-16T04:59:04.309Z,57.10
2018-12-16T05:00:04.312Z,58.60
2018-12-16T05:01:04.286Z,56.60
2018-12-16T05:02:04.276Z,56.40
2018-12-16T05:03:04.267Z,56.90
2018-12-16T05:04:04.256Z,58.30
2018-12-16T05:05:04.253Z,58.00
2018-12-16T05:06:04.235Z,56.50
2018-12-16T05:07:04.221Z,56.70
2018-12-16T05:08:04.216Z,57.80
2018-12-16T05:09:04.213Z,56.40
2018-12-16T05:10:04.201Z,54.90
2018-12-16T05:11:04.182Z,57.70
2018-12-16T05:12:04.167Z,57.50
2018-12-16T05:13:04.158Z,55.60
2018-12-16T05:14:04.155Z,59.30
2018-12-16T05:15:04.146Z,57.60
2018-12-16T05:16:04.126Z,55.50
2018-12-16T05:17:04.122Z,56.70
2018-12-16T05:18:04.109Z,54.50
2018-12-16T05:19:04.099Z,57.20
2018-12-16T05:20:04.093Z,57.20
2018-12-16T05:21:04.072Z,56.50
2018-12-16T05:22:04.062Z,55.20
2018-12-16T05:23:04.053Z,55.80
2018-12-16T05:24:04.041Z,55.80
2018-12-16T05:25:04.038Z,55.10
2018-12-16T05:26:04.020Z,58.70
2018-12-16T05:27:04.014Z,57.60
2018-12-16T05:28:04.001Z,57.40
2018-12-16T05:29:03.986Z,57.50
2018-12-16T05:30:03.984Z,58.80
2018-12-16T05:31:03.965Z,59.40
2018-12-16T05:32:03.954Z,59.10
2018-12-16T05:33:03.947Z,60.40
2018-12-16T05:34:03.931Z,61.10
2018-12-16T05:35:03.930Z,59.80
2018-12-16T05:36:03.910Z,59.00
2018-12-16T05:37:03.903Z,59.20
2018-12-16T05:38:03.890Z,59.90
2018-12-16T05:39:03.881Z,57.20
2018-12-16T05:40:03.878Z,59.40
2018-12-16T05:41:03.857Z,55.90
2018-12-16T05:42:03.847Z,61.30
2018-12-16T05:43:03.841Z,58.90
2018-12-16T05:44:03.830Z,60.00
2018-12-16T05:45:03.824Z,59.00
2018-12-16T05:46:03.805Z,59.40
2018-12-16T05:47:03.791Z,59.40
2018-12-16T05:48:03.781Z,59.90
2018-12-16T05:49:03.774Z,60.10
2018-12-16T05:50:03.771Z,61.50
2018-12-16T05:51:03.750Z,59.10
2018-12-16T05:52:03.738Z,59.70
2018-12-16T05:53:03.732Z,56.50
2018-12-16T05:54:03.723Z,59.10
2018-12-16T05:55:03.722Z,59.10
2018-12-16T05:56:03.696Z,60.50
2018-12-16T05:57:03.684Z,57.70
2018-12-16T05:58:03.672Z,59.60
2018-12-16T05:59:03.661Z,58.60
2018-12-16T06:00:03.665Z,58.80
2018-12-16T06:01:03.642Z,57.50
2018-12-16T06:02:03.636Z,57.20
2018-12-16T06:03:03.619Z,55.90
2018-12-16T06:04:03.609Z,56.50
2018-12-16T06:05:03.608Z,57.80
2018-12-16T06:06:03.591Z,61.90
2018-12-16T06:07:03.576Z,59.40
2018-12-16T06:08:03.579Z,57.50
2018-12-16T06:09:03.555Z,58.10
2018-12-16T06:10:03.555Z,58.30
2018-12-16T06:11:03.536Z,56.60
2018-12-16T06:12:03.532Z,54.00
2018-12-16T06:13:03.514Z,55.10
2018-12-16T06:14:03.510Z,57.20
2018-12-16T06:15:03.502Z,56.10
2018-12-16T06:16:03.486Z,55.80
2018-12-16T06:17:03.471Z,55.80
2018-12-16T06:18:03.471Z,56.00
2018-12-16T06:19:03.453Z,54.20
2018-12-16T06:20:03.474Z,55.90
2018-12-16T06:21:03.428Z,55.80
2018-12-16T06:22:03.418Z,57.60
2018-12-16T06:23:03.410Z,58.30
2018-12-16T06:24:03.400Z,56.10
2018-12-16T06:25:03.385Z,53.50
2018-12-16T06:26:03.389Z,53.70
2018-12-16T06:27:03.364Z,54.90
2018-12-16T06:28:03.354Z,56.60
2018-12-16T06:29:03.347Z,55.60
2018-12-16T06:30:03.332Z,54.50
2018-12-16T06:31:03.331Z,56.00
2018-12-16T06:32:03.312Z,51.90
2018-12-16T06:33:03.299Z,55.60
2018-12-16T06:34:03.291Z,54.00
2018-12-16T06:35:03.279Z,55.40
2018-12-16T06:36:03.277Z,54.30
2018-12-16T06:37:03.262Z,53.00
2018-12-16T06:38:03.244Z,53.90
2018-12-16T06:39:03.236Z,52.70
2018-12-16T06:40:03.231Z,51.60
2018-12-16T06:41:03.231Z,50.80
2018-12-16T06:42:03.203Z,54.40
2018-12-16T06:43:03.195Z,54.50
2018-12-16T06:44:03.183Z,56.00
2018-12-16T06:45:03.172Z,54.50
2018-12-16T06:46:03.169Z,51.40
2018-12-16T06:47:03.149Z,54.50
2018-12-16T06:48:03.140Z,51.80
2018-12-16T06:49:03.133Z,54.20
2018-12-16T06:50:03.118Z,51.90
2018-12-16T06:51:03.114Z,52.20
2018-12-16T06:52:03.096Z,51.20
2018-12-16T06:53:03.086Z,53.00
2018-12-16T06:54:03.092Z,53.10
2018-12-16T06:55:03.063Z,52.50
2018-12-16T06:56:06.635Z,51.20
2018-12-16T06:57:03.042Z,51.00
2018-12-16T06:58:03.032Z,51.70
2018-12-16T06:59:03.020Z,52.00
2018-12-16T07:00:03.011Z,53.10
2018-12-16T07:01:03.012Z,50.70
2018-12-16T07:02:02.988Z,50.10
2018-12-16T07:03:02.977Z,51.70
2018-12-16T07:04:02.968Z,53.70
2018-12-16T07:05:02.957Z,49.50
2018-12-16T07:06:02.955Z,51.70
2018-12-16T07:07:02.934Z,48.00
2018-12-16T07:08:02.921Z,49.00
2018-12-16T07:09:02.915Z,49.30
2018-12-16T07:10:02.906Z,40.10
2018-12-16T07:11:02.904Z,41.90
2018-12-16T07:12:02.882Z,42.30
2018-12-16T07:13:02.883Z,41.20
2018-12-16T07:14:02.859Z,44.30
2018-12-16T07:15:02.847Z,44.10
2018-12-16T07:16:02.854Z,44.20
2018-12-16T07:17:02.832Z,44.50
2018-12-16T07:18:02.822Z,44.80
2018-12-16T07:19:02.804Z,44.40
2018-12-16T07:20:02.793Z,42.10
2018-12-16T07:21:02.796Z,42.70
2018-12-16T07:22:02.773Z,40.10
2018-12-16T07:23:02.822Z,40.60
2018-12-16T07:24:09.049Z,37.30
2018-12-16T07:25:03.739Z,36.90
2018-12-16T07:26:02.742Z,36.80
2018-12-16T07:27:02.721Z,35.50
2018-12-16T07:28:02.727Z,37.20
2018-12-16T07:29:02.738Z,36.60
2018-12-16T07:30:02.713Z,37.10
2018-12-16T07:31:02.722Z,36.60
2018-12-16T07:32:02.666Z,36.20
2018-12-16T07:33:02.659Z,36.20
2018-12-16T07:34:02.678Z,35.40
2018-12-16T07:35:02.642Z,36.10
2018-12-16T07:36:02.638Z,35.30
2018-12-16T07:37:02.613Z,35.50
2018-12-16T07:38:02.617Z,37.30
2018-12-16T07:39:02.592Z,35.90
2018-12-16T07:40:02.588Z,36.80
2018-12-16T07:41:02.580Z,35.90
2018-12-16T07:42:02.558Z,35.20
2018-12-16T07:43:02.574Z,34.60
2018-12-16T07:44:02.556Z,36.30
2018-12-16T07:45:02.524Z,35.10
2018-12-16T07:46:02.540Z,34.90
2018-12-16T07:47:02.508Z,34.10
2018-12-16T07:48:02.494Z,33.20
2018-12-16T07:49:02.487Z,33.40
2018-12-16T07:50:02.472Z,35.40
2018-12-16T07:51:02.495Z,36.00
2018-12-16T07:52:02.451Z,34.80
2018-12-16T07:53:02.512Z,36.40
2018-12-16T07:54:02.436Z,35.10
2018-12-16T07:55:02.429Z,35.60
2018-12-16T07:56:02.446Z,35.30
2018-12-16T07:57:02.396Z,36.50
2018-12-16T07:58:02.390Z,36.70
2018-12-16T07:59:02.415Z,36.90
2018-12-16T08:00:02.390Z,36.00
2018-12-16T08:01:02.353Z,36.90
2018-12-16T08:02:02.391Z,38.10
2018-12-16T08:03:02.339Z,36.60
2018-12-16T08:04:02.323Z,37.90
2018-12-16T08:05:02.314Z,38.50
2018-12-16T08:06:02.303Z,37.80
2018-12-16T08:07:02.299Z,38.00
2018-12-16T08:08:02.282Z,41.30
2018-12-16T08:09:02.272Z,40.10
2018-12-16T08:10:02.258Z,40.20
2018-12-16T08:11:02.245Z,38.00
2018-12-16T08:12:02.246Z,42.30
2018-12-16T08:13:02.228Z,42.60
2018-12-16T08:14:02.213Z,40.50
2018-12-16T08:15:02.206Z,39.80
2018-12-16T08:16:02.194Z,42.60
2018-12-16T08:17:02.197Z,38.50
2018-12-16T08:18:02.172Z,37.60
2018-12-16T08:19:06.931Z,40.10
2018-12-16T08:20:03.154Z,37.80
2018-12-16T08:21:02.139Z,39.60
2018-12-16T08:22:02.144Z,39.90
2018-12-16T08:23:02.119Z,40.60
2018-12-16T08:24:02.107Z,36.70
2018-12-16T08:25:02.101Z,37.30
2018-12-16T08:26:02.087Z,37.30
2018-12-16T08:27:02.087Z,39.80
2018-12-16T08:28:02.070Z,39.30
2018-12-16T08:29:02.453Z,39.00
2018-12-16T08:30:02.043Z,40.00
2018-12-16T08:31:02.036Z,39.30
2018-12-16T08:32:02.039Z,38.80
2018-12-16T08:33:02.014Z,40.80
2018-12-16T08:34:02.002Z,40.00
2018-12-16T08:35:01.992Z,41.10
2018-12-16T08:36:01.980Z,41.20
2018-12-16T08:37:01.979Z,39.00
2018-12-16T08:38:01.966Z,39.50
2018-12-16T08:39:01.949Z,39.80
2018-12-16T08:40:01.939Z,39.10
2018-12-16T08:41:01.928Z,39.50
2018-12-16T08:42:01.928Z,42.00
2018-12-16T08:43:01.910Z,40.50
2018-12-16T08:44:01.895Z,42.20
2018-12-16T08:45:01.884Z,40.30
2018-12-16T08:46:01.902Z,39.90
2018-12-16T08:47:01.869Z,41.60
2018-12-16T08:48:01.855Z,40.60
2018-12-16T08:49:01.842Z,39.60
2018-12-16T08:50:01.833Z,40.70
2018-12-16T08:51:01.823Z,42.80
2018-12-16T08:52:01.823Z,41.50
2018-12-16T08:53:01.799Z,39.70
2018-12-16T08:54:01.789Z,44.60
2018-12-16T08:55:01.778Z,40.70
2018-12-16T08:56:01.767Z,41.30
2018-12-16T08:57:01.763Z,39.80
2018-12-16T08:58:01.747Z,39.10
2018-12-16T08:59:01.734Z,41.60
2018-12-16T09:00:01.726Z,39.30
2018-12-16T09:01:01.714Z,39.30
2018-12-16T09:02:01.711Z,41.40
2018-12-16T09:03:01.698Z,40.90
2018-12-16T09:04:01.687Z,42.60
2018-12-16T09:05:01.671Z,39.20
2018-12-16T09:06:01.663Z,38.40
2018-12-16T09:07:01.659Z,40.50
2018-12-16T09:08:01.640Z,37.60
2018-12-16T09:09:01.629Z,38.20
2018-12-16T09:10:01.618Z,39.20
2018-12-16T09:11:01.611Z,39.70
2018-12-16T09:12:01.606Z,38.50
2018-12-16T09:13:01.585Z,38.00
2018-12-16T09:14:01.579Z,39.00
2018-12-16T09:15:01.586Z,38.20
2018-12-16T09:16:01.556Z,37.40
2018-12-16T09:17:01.552Z,38.00
2018-12-16T09:18:01.533Z,37.20
2018-12-16T09:19:01.529Z,36.00
2018-12-16T09:20:01.514Z,35.30
2018-12-16T09:21:01.500Z,35.50
2018-12-16T09:22:01.530Z,37.70
2018-12-16T09:23:01.545Z,32.70
2018-12-16T09:24:01.469Z,33.40
2018-12-16T09:25:01.457Z,31.90
2018-12-16T09:26:01.461Z,32.40
2018-12-16T09:27:01.437Z,34.20
2018-12-16T09:28:01.432Z,34.90
2018-12-16T09:29:01.414Z,33.10
2018-12-16T09:30:01.407Z,33.60
2018-12-16T09:31:01.393Z,33.30
2018-12-16T09:32:02.841Z,33.90
2018-12-16T09:33:01.379Z,36.40
2018-12-16T09:34:01.360Z,35.90
2018-12-16T09:35:01.351Z,36.10
2018-12-16T09:36:01.340Z,35.20
2018-12-16T09:37:01.328Z,35.00
2018-12-16T09:38:01.331Z,36.60
2018-12-16T09:39:01.307Z,33.60
2018-12-16T09:40:01.311Z,31.80
2018-12-16T09:41:01.291Z,32.60
2018-12-16T09:42:01.278Z,33.90
2018-12-16T09:43:01.273Z,35.80
2018-12-16T09:44:01.252Z,33.30
2018-12-16T09:45:01.262Z,34.00
2018-12-16T09:46:01.237Z,34.40
2018-12-16T09:47:01.223Z,34.10
2018-12-16T09:48:01.222Z,34.70
2018-12-16T09:49:01.221Z,35.90
2018-12-16T09:50:01.191Z,33.70
2018-12-16T09:51:01.178Z,33.40
2018-12-16T09:52:01.168Z,33.80
2018-12-16T09:53:01.169Z,33.80
2018-12-16T09:54:01.151Z,33.90
2018-12-16T09:55:01.136Z,33.30
2018-12-16T09:56:01.125Z,32.00
2018-12-16T09:57:01.117Z,33.00
2018-12-16T09:58:01.113Z,32.10
2018-12-16T09:59:01.096Z,32.90
2018-12-16T10:00:01.082Z,32.00
2018-12-16T10:01:01.075Z,32.60
2018-12-16T10:02:01.060Z,35.10
2018-12-16T10:03:01.057Z,33.40
2018-12-16T10:04:01.043Z,33.60
2018-12-16T10:05:01.026Z,33.80
2018-12-16T10:06:01.019Z,35.10
2018-12-16T10:07:01.010Z,35.20
2018-12-16T10:08:01.013Z,35.80
2018-12-16T10:09:00.989Z,35.50
2018-12-16T10:10:00.978Z,36.70
2018-12-16T10:11:00.967Z,36.90
2018-12-16T10:12:00.958Z,37.40
2018-12-16T10:13:00.949Z,35.60
2018-12-16T10:14:00.947Z,38.20
2018-12-16T10:15:00.925Z,39.50
2018-12-16T10:16:00.910Z,36.90
2018-12-16T10:17:00.902Z,37.30
2018-12-16T10:18:00.890Z,38.10
2018-12-16T10:19:00.892Z,35.50
2018-12-16T10:20:00.870Z,36.80
2018-12-16T10:21:00.856Z,37.10
2018-12-16T10:22:00.849Z,34.70
2018-12-16T10:23:00.835Z,34.70
2018-12-16T10:24:00.832Z,34.80
2018-12-16T10:25:00.811Z,36.10
2018-12-16T10:26:00.805Z,33.20
2018-12-16T10:27:00.793Z,36.30
2018-12-16T10:28:00.782Z,36.00
2018-12-16T10:29:00.778Z,34.70
2018-12-16T10:30:00.759Z,34.20
2018-12-16T10:31:00.747Z,31.50
2018-12-16T10:32:00.739Z,30.80
2018-12-16T10:33:00.730Z,30.50
2018-12-16T10:34:00.728Z,30.30
2018-12-16T10:35:00.706Z,28.70
2018-12-16T10:36:00.696Z,29.60
2018-12-16T10:37:00.683Z,29.20
2018-12-16T10:38:00.672Z,30.80
2018-12-16T10:39:01.872Z,29.90
2018-12-16T10:40:00.649Z,30.30
2018-12-16T10:41:00.639Z,30.40
2018-12-16T10:42:00.634Z,30.70
2018-12-16T10:43:00.622Z,31.70
2018-12-16T10:44:00.617Z,32.00
2018-12-16T10:45:00.598Z,32.20
2018-12-16T10:46:00.588Z,34.00
2018-12-16T10:47:00.578Z,32.20
2018-12-16T10:48:00.564Z,31.30
2018-12-16T10:49:04.772Z,30.30
2018-12-16T10:50:00.544Z,29.40
2018-12-16T10:51:00.533Z,27.90
2018-12-16T10:52:00.528Z,30.20
2018-12-16T10:53:00.511Z,30.40
2018-12-16T10:54:00.515Z,30.80
2018-12-16T10:55:00.491Z,29.40
2018-12-16T10:56:00.485Z,30.10
2018-12-16T10:57:00.468Z,28.40
2018-12-16T10:58:00.458Z,24.80
2018-12-16T10:59:00.456Z,24.40
2018-12-16T11:00:00.436Z,24.30
2018-12-16T11:01:00.425Z,24.80
2018-12-16T11:02:00.417Z,24.90
2018-12-16T11:03:00.404Z,25.00
2018-12-16T11:04:00.423Z,24.30
2018-12-16T11:05:00.382Z,23.60
2018-12-16T11:06:00.374Z,27.90
2018-12-16T11:07:00.411Z,25.10
2018-12-16T11:08:00.349Z,26.70
2018-12-16T11:09:00.339Z,25.50
2018-12-16T11:10:00.342Z,22.00
2018-12-16T11:11:00.321Z,22.40
2018-12-16T11:12:00.309Z,23.80
2018-12-16T11:13:00.298Z,24.40
2018-12-16T11:14:00.287Z,24.40
2018-12-16T11:15:00.285Z,25.60
2018-12-16T11:16:00.266Z,24.80
2018-12-16T11:17:00.261Z,25.60
2018-12-16T11:18:00.245Z,26.10
2018-12-16T11:19:00.236Z,26.50
2018-12-16T11:20:00.240Z,24.30
2018-12-16T11:21:00.216Z,23.30
2018-12-16T11:22:00.243Z,22.00
2018-12-16T11:23:00.195Z,24.20
2018-12-16T11:24:00.180Z,25.10
2018-12-16T11:25:05.591Z,23.80
2018-12-16T11:26:01.158Z,23.00
2018-12-16T11:27:00.150Z,24.60
2018-12-16T11:28:00.138Z,22.00
2018-12-16T11:29:00.129Z,21.40
2018-12-16T11:30:00.127Z,24.00
2018-12-16T11:31:00.106Z,21.80
2018-12-16T11:32:00.094Z,24.20
2018-12-16T11:33:00.085Z,22.30
2018-12-16T11:34:00.072Z,22.40
2018-12-16T11:35:00.076Z,23.60
2018-12-16T11:36:00.052Z,23.60
2018-12-16T11:37:00.038Z,24.60
2018-12-16T11:38:00.029Z,22.60
2018-12-16T11:39:00.020Z,23.50
2018-12-16T11:40:00.021Z,24.80
2018-12-16T11:41:00.004Z,23.10
2018-12-16T11:41:59.984Z,23.80
2018-12-16T11:42:59.975Z,25.40
2018-12-16T11:43:59.966Z,24.90
2018-12-16T11:44:59.965Z,24.50
2018-12-16T11:45:59.948Z,23.60
2018-12-16T11:46:59.932Z,23.90
2018-12-16T11:47:59.922Z,24.60
2018-12-16T11:48:59.913Z,23.70
2018-12-16T11:49:59.912Z,23.90
2018-12-16T11:50:59.891Z,24.90
2018-12-16T11:51:59.886Z,24.30
2018-12-16T11:52:59.871Z,23.90
2018-12-16T11:53:59.856Z,24.30
2018-12-16T11:54:59.909Z,24.70
2018-12-16T11:55:59.839Z,23.40
2018-12-16T11:56:59.824Z,22.90
2018-12-16T11:57:59.816Z,22.60
2018-12-16T11:58:59.805Z,22.80
2018-12-16T11:59:59.846Z,23.60
2018-12-16T12:00:59.790Z,22.10
2018-12-16T12:01:59.771Z,24.20
2018-12-16T12:02:59.759Z,22.20
2018-12-16T12:03:59.749Z,23.80
2018-12-16T12:04:59.743Z,22.50
2018-12-16T12:05:59.738Z,23.40
2018-12-16T12:06:59.717Z,23.30
2018-12-16T12:07:59.705Z,24.10
2018-12-16T12:08:59.697Z,23.40
2018-12-16T12:09:59.690Z,22.90
2018-12-16T12:10:59.681Z,24.30
2018-12-16T12:11:59.663Z,22.20
2018-12-16T12:12:59.655Z,22.40
2018-12-16T12:13:59.642Z,21.60
2018-12-16T12:14:59.639Z,24.30
2018-12-16T12:15:59.639Z,22.30
2018-12-16T12:16:59.611Z,22.50
2018-12-16T12:17:59.599Z,21.20
2018-12-16T12:18:59.586Z,24.40
2018-12-16T12:19:59.578Z,22.60
2018-12-16T12:20:59.577Z,22.50
2018-12-16T12:22:04.397Z,23.50
2018-12-16T12:22:59.547Z,22.70
2018-12-16T12:23:59.535Z,24.00
2018-12-16T12:24:59.527Z,22.00
2018-12-16T12:25:59.522Z,23.50
2018-12-16T12:26:59.502Z,22.60
2018-12-16T12:27:59.494Z,23.70
2018-12-16T12:28:59.485Z,23.70
2018-12-16T12:29:59.470Z,22.90
2018-12-16T12:30:59.468Z,22.70
2018-12-16T12:31:59.450Z,22.50
2018-12-16T12:32:59.438Z,22.10
2018-12-16T12:33:59.430Z,22.70
2018-12-16T12:34:59.423Z,22.10
2018-12-16T12:35:59.703Z,22.90
2018-12-16T12:36:59.396Z,22.20
2018-12-16T12:37:59.386Z,24.20
2018-12-16T12:38:59.381Z,23.00
2018-12-16T12:39:59.365Z,22.00
2018-12-16T12:40:59.353Z,22.80
2018-12-16T12:41:59.358Z,23.50
2018-12-16T12:42:59.331Z,23.20
2018-12-16T12:43:59.323Z,23.80
2018-12-16T12:44:59.307Z,23.00
2018-12-16T12:45:59.298Z,23.30
2018-12-16T12:46:59.301Z,22.50
2018-12-16T12:47:59.275Z,23.30
2018-12-16T12:48:59.267Z,22.50
2018-12-16T12:49:59.259Z,22.50
2018-12-16T12:50:59.245Z,22.30
2018-12-16T12:51:59.242Z,23.00